Time;durP1;ratioP1;P1;durP2;ratioP2;P2;SDS_P1;SDS_P2;PMS_P1;PMS_P2;Temp;Humidity;BMP_temperature;BMP_pressure;BME280_temperature;BME280_humidity;BME280_pressure;Samples;Min_cycle;Max_cycle;Signal;HPM_P1;HPM_P2
2023/03/03 00:04:22;;;;;;;151.00;65.80;;;;;;;-3.36;81.67;99311.10;272653;1263;22393;-89
2023/03/03 00:10:24;;;;;;;140.30;59.50;;;;;;;-3.40;82.36;99307.91;273342;1270;22189;-87
2023/03/03 00:16:37;;;;;;;130.90;59.30;;;;;;;-3.39;82.53;99304.54;273301;1270;22340;-87
2023/03/03 00:22:41;;;;;;;132.30;62.00;;;;;;;-3.45;82.50;99302.54;273139;1270;22296;-88
2023/03/03 00:28:48;;;;;;;156.30;69.90;;;;;;;-3.48;82.75;99309.89;273210;1257;22372;-86
2023/03/03 00:34:52;;;;;;;160.80;73.20;;;;;;;-3.53;82.68;99306.98;273324;1270;23528;-86
2023/03/03 00:40:54;;;;;;;134.70;59.40;;;;;;;-3.65;82.58;99308.75;273179;1269;23050;-86
2023/03/03 00:46:56;;;;;;;157.80;69.80;;;;;;;-3.74;82.86;99306.33;273256;1270;22334;-85
2023/03/03 00:53:02;;;;;;;174.00;76.80;;;;;;;-3.76;82.97;99297.34;272344;1270;22576;-85
2023/03/03 00:59:06;;;;;;;168.30;76.10;;;;;;;-3.79;83.29;99281.25;271615;1263;22241;-85
2023/03/03 01:05:14;;;;;;;170.70;72.50;;;;;;;-3.86;83.26;99274.34;272713;1270;22149;-84
2023/03/03 01:11:25;;;;;;;140.40;66.00;;;;;;;-3.93;83.63;99269.93;271963;1259;22303;-84
2023/03/03 01:17:28;;;;;;;153.20;66.50;;;;;;;-3.99;83.37;99267.17;271797;1260;22551;-84
2023/03/03 01:23:33;;;;;;;146.30;63.90;;;;;;;-4.05;83.84;99264.69;272265;1257;22307;-84
2023/03/03 01:29:43;;;;;;;165.70;72.70;;;;;;;-4.08;83.95;99258.23;270874;1270;21817;-85
2023/03/03 01:36:10;;;;;;;180.80;77.50;;;;;;;-4.13;84.10;99259.95;271668;1270;22566;-85
2023/03/03 01:42:38;;;;;;;188.00;79.10;;;;;;;-4.15;84.07;99263.98;270365;1271;22595;-85
2023/03/03 01:49:02;;;;;;;188.50;83.60;;;;;;;-4.25;83.83;99265.77;270762;1272;22527;-85
2023/03/03 01:55:36;;;;;;;147.30;68.30;;;;;;;-4.33;83.84;99265.80;270407;1270;22665;-84
2023/03/03 02:01:59;;;;;;;154.30;66.70;;;;;;;-4.41;83.13;99262.08;270752;1271;22561;-85
2023/03/03 02:08:07;;;;;;;207.00;87.20;;;;;;;-4.50;83.75;99267.02;270722;1269;22730;-85
2023/03/03 02:14:11;;;;;;;191.10;79.60;;;;;;;-4.57;84.02;99264.73;269883;1269;24365;-85
2023/03/03 02:20:53;;;;;;;290.40;116.40;;;;;;;-4.57;84.53;99266.49;270398;1270;23682;-83
2023/03/03 02:26:57;;;;;;;337.60;134.00;;;;;;;-4.61;84.58;99264.69;271674;1262;22581;-85
2023/03/03 02:32:59;;;;;;;425.50;134.50;;;;;;;-4.67;84.59;99261.33;272008;1261;22539;-83
2023/03/03 02:39:45;;;;;;;456.80;147.30;;;;;;;-4.77;84.54;99262.02;271638;1270;23524;-84
2023/03/03 02:45:54;;;;;;;419.40;136.10;;;;;;;-4.83;85.04;99252.80;271636;1260;22592;-83
2023/03/03 02:51:57;;;;;;;272.40;98.90;;;;;;;-4.81;85.36;99258.46;271347;1270;22583;-82
2023/03/03 02:57:59;;;;;;;368.60;121.00;;;;;;;-4.72;85.96;99263.09;271231;1261;22630;-83
2023/03/03 03:04:14;;;;;;;307.00;113.90;;;;;;;-4.75;85.44;99261.92;270838;1269;22525;-83
2023/03/03 03:10:45;;;;;;;293.60;109.90;;;;;;;-4.86;85.14;99259.73;273338;1270;23348;-83
2023/03/03 03:16:48;;;;;;;290.00;108.80;;;;;;;-4.92;85.47;99255.59;272476;1270;23139;-83
2023/03/03 03:30:42;;;;;;;331.40;104.40;;;;;;;-5.04;85.67;99266.85;272812;1270;24249;-84
2023/03/03 03:36:46;;;;;;;259.70;96.20;;;;;;;-5.06;85.24;99263.91;272636;1271;25456;-84
2023/03/03 03:42:48;;;;;;;251.90;93.70;;;;;;;-5.06;85.18;99253.55;270813;1260;22650;-84
2023/03/03 04:03:38;;;;;;;298.30;111.50;;;;;;;-5.20;86.06;99252.45;270543;1271;22539;-83
2023/03/03 04:17:30;;;;;;;274.20;109.80;;;;;;;-5.22;86.19;99252.98;270684;1271;23336;-81
2023/03/03 04:23:40;;;;;;;258.30;101.30;;;;;;;-5.27;86.38;99245.02;269516;1269;24523;-82
2023/03/03 04:29:43;;;;;;;262.40;100.80;;;;;;;-5.29;86.36;99238.18;270315;1270;22260;-82
2023/03/03 04:43:04;;;;;;;293.20;104.60;;;;;;;-5.45;85.97;99252.74;271068;1262;22782;-81
2023/03/03 04:49:07;;;;;;;309.30;109.70;;;;;;;-5.51;86.41;99257.80;270722;1260;22533;-81
2023/03/03 04:55:36;;;;;;;217.70;87.00;;;;;;;-5.50;86.67;99258.77;270876;1263;22633;-81
2023/03/03 05:01:38;;;;;;;231.10;94.60;;;;;;;-5.52;86.11;99256.36;272080;1270;22938;-82
2023/03/03 05:08:31;;;;;;;279.20;104.70;;;;;;;-5.55;86.39;99262.20;273124;1264;22201;-81
2023/03/03 05:22:31;;;;;;;216.80;78.30;;;;;;;-5.63;86.81;99268.78;272522;1263;23415;-80
2023/03/03 05:28:45;;;;;;;;;;;;;;;-5.65;86.54;99271.39;270608;1270;22615;-81
2023/03/03 05:35:19;;;;;;;214.90;88.10;;;;;;;-5.72;85.95;99267.58;270252;1264;23288;-82
2023/03/03 05:41:21;;;;;;;260.20;100.70;;;;;;;-5.72;86.90;99271.67;272103;1268;22423;-82
2023/03/03 05:47:23;;;;;;;259.40;103.00;;;;;;;-5.67;87.44;99278.30;271252;1270;22376;-80
2023/03/03 06:01:13;;;;;;;231.80;94.30;;;;;;;-5.49;87.62;99295.27;272819;1270;22361;-81
2023/03/03 06:07:16;;;;;;;226.60;96.10;;;;;;;-5.36;87.73;99302.17;272840;1269;22347;-81
2023/03/03 06:13:17;;;;;;;260.40;110.90;;;;;;;-5.23;88.02;99309.02;273274;1269;22309;-80
2023/03/03 06:19:19;;;;;;;265.20;111.10;;;;;;;-5.11;88.48;99315.23;273328;1270;22446;-81
2023/03/03 06:25:43;;;;;;;221.00;94.50;;;;;;;-4.98;88.40;99318.38;272155;1270;25377;-80
2023/03/03 06:32:48;;;;;;;254.90;109.70;;;;;;;-4.77;89.27;99331.90;272681;1270;22345;-81
2023/03/03 06:39:36;;;;;;;255.50;113.10;;;;;;;-4.44;90.56;99348.35;273194;1269;22352;-80
2023/03/03 06:45:38;;;;;;;253.30;102.70;;;;;;;-4.15;91.13;99358.30;272557;1270;22992;-81
2023/03/03 06:51:41;;;;;;;240.50;96.50;;;;;;;-3.94;91.07;99356.95;272869;1258;22420;-81
2023/03/03 06:58:08;;;;;;;260.70;116.40;;;;;;;-3.80;90.27;99355.41;273090;1269;22462;-81
2023/03/03 07:04:33;;;;;;;255.90;112.10;;;;;;;-3.61;91.15;99340.19;270540;1263;25138;-82
2023/03/03 07:10:35;;;;;;;209.40;97.10;;;;;;;-3.29;92.26;99335.59;272054;1261;23371;-81
2023/03/03 07:16:37;;;;;;;209.40;97.90;;;;;;;-3.00;92.41;99334.33;271050;1271;24304;-81
2023/03/03 07:22:39;;;;;;;211.80;97.90;;;;;;;-2.77;91.98;99325.54;271814;1271;22326;-81
2023/03/03 07:28:44;;;;;;;204.00;94.80;;;;;;;-2.57;91.34;99309.50;272003;1271;22347;-82
2023/03/03 07:42:39;;;;;;;207.50;95.20;;;;;;;-1.70;93.45;99320.20;271597;1271;24209;-80
2023/03/03 07:48:50;;;;;;;180.40;85.10;;;;;;;-1.24;93.64;99294.51;270894;1271;23036;-82
2023/03/03 07:55:42;;;;;;;178.60;85.50;;;;;;;-0.58;95.19;99293.73;271775;1271;22866;-83
2023/03/03 08:02:51;;;;;;;181.90;90.00;;;;;;;-0.06;94.81;99294.89;271452;1264;22334;-85
2023/03/03 08:16:35;;;;;;;168.10;83.70;;;;;;;0.69;93.71;99292.38;271638;1265;22377;-89
2023/03/03 08:22:41;;;;;;;167.20;82.20;;;;;;;0.86;92.39;99276.90;271065;1271;22559;-88
2023/03/03 08:28:44;;;;;;;175.00;83.60;;;;;;;1.11;92.20;99266.83;269704;1273;22666;-88
2023/03/03 08:34:46;;;;;;;169.80;86.90;;;;;;;1.42;91.94;99284.70;270165;1270;23114;-88
2023/03/03 08:40:48;;;;;;;168.50;85.50;;;;;;;1.61;91.21;99301.80;269588;1271;22575;-88
2023/03/03 08:46:52;;;;;;;156.60;80.20;;;;;;;1.62;90.80;99311.02;269838;1266;22526;-87
2023/03/03 08:52:55;;;;;;;163.20;82.00;;;;;;;1.56;90.88;99300.48;270327;1271;23545;-87
2023/03/03 08:59:25;;;;;;;178.00;90.20;;;;;;;1.63;90.68;99300.91;270293;1272;22527;-87
2023/03/03 09:06:46;;;;;;;179.70;90.70;;;;;;;1.56;90.31;99309.92;271715;1268;23379;-86
2023/03/03 09:13:44;;;;;;;176.60;88.80;;;;;;;1.47;90.23;99318.44;269624;1281;22604;-87
2023/03/03 09:19:50;;;;;;;178.00;87.20;;;;;;;1.53;90.73;99319.89;269810;1275;22329;-87
2023/03/03 09:26:28;;;;;;;200.00;100.20;;;;;;;1.61;90.84;99325.80;268909;1274;23419;-87
2023/03/03 09:40:33;;;;;;;172.70;85.80;;;;;;;2.01;91.18;99309.83;270456;1272;22518;-87
2023/03/03 09:46:42;;;;;;;188.40;90.10;;;;;;;2.18;91.08;99301.35;270290;1271;22403;-88
2023/03/03 09:52:53;;;;;;;168.00;87.30;;;;;;;2.35;90.77;99309.48;272608;1270;22579;-88
2023/03/03 09:59:15;;;;;;;176.80;86.80;;;;;;;2.49;90.57;99309.88;271448;1270;25595;-88
2023/03/03 10:05:32;;;;;;;166.40;83.50;;;;;;;2.56;90.21;99309.19;272641;1271;23494;-89
2023/03/03 10:11:55;;;;;;;164.10;79.40;;;;;;;2.57;90.24;99307.79;271882;1270;23325;-88
2023/03/03 10:18:35;;;;;;;178.20;84.10;;;;;;;2.57;89.93;99313.70;270466;1267;23631;-89
2023/03/03 10:24:55;;;;;;;158.30;80.60;;;;;;;2.51;90.19;99317.38;271528;1270;23645;-89
2023/03/03 10:30:58;;;;;;;203.20;100.90;;;;;;;2.54;89.99;99317.20;270368;1268;23749;-89
2023/03/03 10:44:49;;;;;;;193.40;93.70;;;;;;;2.44;89.54;99334.34;270165;1271;208925;-88
2023/03/03 10:51:10;;;;;;;213.10;105.60;;;;;;;2.35;89.69;99332.37;270424;1270;22392;-90
2023/03/03 10:57:43;;;;;;;200.80;102.20;;;;;;;2.36;90.00;99333.98;269677;1271;23256;-91
2023/03/03 11:04:11;;;;;;;214.20;106.00;;;;;;;2.34;89.75;99343.41;269206;1270;22550;-91
2023/03/03 11:10:35;;;;;;;222.30;104.70;;;;;;;2.26;89.69;99343.80;269817;1269;22585;-90
2023/03/03 11:16:52;;;;;;;246.20;116.60;;;;;;;2.25;89.83;99348.27;270633;1272;23080;-90
2023/03/03 11:23:21;;;;;;;238.70;113.10;;;;;;;2.17;89.78;99354.21;269121;1271;22882;-89
2023/03/03 11:30:05;;;;;;;223.20;109.40;;;;;;;2.06;89.85;99355.91;269869;1271;22507;-89
2023/03/03 11:36:19;;;;;;;229.90;102.80;;;;;;;2.02;89.98;99358.23;271988;1271;22431;-89
2023/03/03 11:42:47;;;;;;;215.20;91.80;;;;;;;1.88;89.86;99342.67;270476;1270;22415;-89
2023/03/03 11:49:08;;;;;;;200.30;91.50;;;;;;;1.80;90.05;99343.31;273027;1275;23202;-89
2023/03/03 11:55:32;;;;;;;191.10;85.00;;;;;;;1.80;90.08;99346.30;272913;1271;22275;-89
2023/03/03 12:01:47;;;;;;;210.30;86.60;;;;;;;1.82;90.13;99344.25;269980;1274;22781;-89
2023/03/03 12:08:07;;;;;;;178.90;80.60;;;;;;;1.81;89.97;99339.36;270193;1271;22545;-88
2023/03/03 12:14:39;;;;;;;188.80;79.80;;;;;;;1.77;89.83;99336.31;270108;1272;25468;-88
2023/03/03 12:20:55;;;;;;;190.50;81.40;;;;;;;1.71;89.86;99335.08;271743;1270;23179;-88
2023/03/03 12:27:05;;;;;;;173.50;75.70;;;;;;;1.72;89.97;99331.34;269737;1272;23015;-88
2023/03/03 12:33:18;;;;;;;178.20;77.00;;;;;;;1.65;89.66;99330.60;271229;1273;22202;-91
2023/03/03 12:39:54;;;;;;;152.60;64.40;;;;;;;1.64;89.80;99335.31;272746;1272;22811;-91
2023/03/03 12:46:06;;;;;;;142.20;61.60;;;;;;;1.56;89.52;99338.35;272716;1270;23460;-91
2023/03/03 12:52:46;;;;;;;144.80;59.80;;;;;;;1.35;89.69;99329.61;272749;1271;23269;-90
2023/03/03 12:59:26;;;;;;;148.60;59.00;;;;;;;1.36;90.12;99321.33;272922;1273;22179;-88
2023/03/03 13:06:03;;;;;;;137.60;55.70;;;;;;;1.38;90.13;99314.48;272914;1273;22613;-91
2023/03/03 13:12:20;;;;;;;144.90;57.40;;;;;;;1.44;90.50;99310.11;271637;1274;22386;-90
2023/03/03 13:18:31;;;;;;;124.40;50.30;;;;;;;1.45;90.28;99308.42;270547;1274;22240;-89
2023/03/03 13:25:11;;;;;;;136.10;54.90;;;;;;;1.31;90.01;99308.13;272085;1272;22324;-89
2023/03/03 13:31:32;;;;;;;118.70;47.10;;;;;;;1.20;90.49;99306.50;272054;1272;22474;-90
2023/03/03 13:37:42;;;;;;;102.80;40.20;;;;;;;1.09;90.73;99308.70;272341;1273;22327;-90
2023/03/03 13:43:56;;;;;;;110.90;43.00;;;;;;;0.95;90.92;99314.96;272701;1272;23089;-92
2023/03/03 13:50:24;;;;;;;98.70;38.80;;;;;;;0.82;91.32;99310.83;272816;1274;22278;-91
2023/03/03 13:56:54;;;;;;;102.80;36.50;;;;;;;0.77;91.63;99309.47;272919;1271;22226;-89
2023/03/03 14:03:00;;;;;;;98.00;37.60;;;;;;;0.71;91.74;99312.59;272624;1273;23532;-90
2023/03/03 14:09:14;;;;;;;101.30;39.90;;;;;;;0.64;91.78;99319.68;272596;1272;22377;-91
2023/03/03 14:15:49;;;;;;;85.40;33.90;;;;;;;0.56;91.94;99318.91;272051;1273;23106;-91
2023/03/03 14:22:00;;;;;;;87.50;33.10;;;;;;;0.43;92.01;99317.60;271260;1272;22325;-91
2023/03/03 14:28:12;;;;;;;80.80;31.80;;;;;;;0.31;92.16;99312.27;270571;1272;23843;-89
2023/03/03 14:34:30;;;;;;;84.70;32.60;;;;;;;0.24;92.41;99308.42;271226;1272;22531;-90
2023/03/03 14:40:34;;;;;;;77.80;31.70;;;;;;;0.26;92.59;99308.44;270168;1273;22604;-90
2023/03/03 14:46:38;;;;;;;73.00;29.40;;;;;;;0.28;92.38;99304.66;270200;1270;22552;-88
2023/03/03 14:52:40;;;;;;;68.30;28.50;;;;;;;0.27;92.12;99305.86;269600;1273;25084;-89
2023/03/03 14:58:51;;;;;;;70.00;27.90;;;;;;;0.25;92.06;99307.58;270212;1271;22526;-90
2023/03/03 15:05:35;;;;;;;72.80;29.40;;;;;;;0.29;92.31;99306.55;269378;1273;22567;-90
2023/03/03 15:11:37;;;;;;;77.60;30.40;;;;;;;0.30;92.24;99304.24;268996;1270;22618;-91
2023/03/03 15:17:43;;;;;;;68.80;30.00;;;;;;;0.30;92.23;99302.48;269922;1271;25310;-89
2023/03/03 15:23:55;;;;;;;82.40;32.30;;;;;;;0.23;92.22;99303.10;270254;1272;22970;-90
2023/03/03 15:30:02;;;;;;;84.80;32.00;;;;;;;0.22;92.24;99304.69;270012;1270;22645;-89
2023/03/03 15:36:07;;;;;;;;;;;;;;;0.19;92.51;99299.99;270573;1273;22534;-91
2023/03/03 15:42:23;;;;;;;80.00;31.80;;;;;;;0.19;92.78;99296.30;269902;1270;22669;-92
2023/03/03 15:48:57;;;;;;;76.60;30.80;;;;;;;0.16;92.86;99287.68;270379;1273;25357;-90
2023/03/03 15:55:24;;;;;;;69.10;28.30;;;;;;;0.15;92.74;99289.05;270174;1271;22580;-90
2023/03/03 16:01:33;;;;;;;73.30;30.10;;;;;;;0.07;92.46;99294.92;270022;1271;22694;-90
2023/03/03 16:07:47;;;;;;;66.30;27.40;;;;;;;0.00;92.30;99299.61;271177;1271;25258;-90
2023/03/03 16:14:16;;;;;;;63.10;27.00;;;;;;;-0.01;92.47;99302.90;270489;1271;22600;-90
2023/03/03 16:20:29;;;;;;;70.30;28.60;;;;;;;-0.02;92.21;99306.05;270597;1271;22686;-90
2023/03/03 16:27:00;;;;;;;73.30;29.60;;;;;;;-0.04;92.15;99313.52;269703;1271;23343;-90
2023/03/03 16:33:30;;;;;;;67.20;29.00;;;;;;;-0.08;92.25;99318.07;270063;1273;22575;-89
2023/03/03 16:40:00;;;;;;;71.50;30.60;;;;;;;-0.08;92.44;99320.54;272169;1267;22493;-91
2023/03/03 16:46:23;;;;;;;80.30;31.20;;;;;;;-0.07;92.56;99328.48;270447;1270;22534;-91
2023/03/03 16:53:01;;;;;;;66.60;27.80;;;;;;;-0.05;92.96;99339.42;270645;1272;23596;-90
2023/03/03 16:59:44;;;;;;;57.00;25.20;;;;;;;-0.07;92.55;99332.31;269724;1272;22541;-89
2023/03/03 17:06:32;;;;;;;62.80;25.60;;;;;;;-0.08;92.34;99333.84;269936;1271;22532;-91
2023/03/03 17:12:58;;;;;;;66.10;26.20;;;;;;;-0.10;92.29;99338.35;269695;1271;23442;-90
2023/03/03 17:19:43;;;;;;;;;;;;;;;;;;;;;
2023/03/03 17:26:16;;;;;;;79.80;31.50;;;;;;;-0.08;92.28;99340.29;270659;1271;23339;-91
2023/03/03 17:33:03;;;;;;;82.20;32.60;;;;;;;-0.07;92.40;99333.98;270291;1268;22518;-91
2023/03/03 17:40:06;;;;;;;84.10;32.40;;;;;;;-0.09;92.25;99326.23;269546;1273;22666;-91
2023/03/03 17:46:53;;;;;;;83.00;32.60;;;;;;;-0.08;92.39;99330.98;270137;1271;25299;-89
2023/03/03 17:53:35;;;;;;;59.70;24.20;;;;;;;-0.08;92.58;99331.95;269341;1271;22532;-91
2023/03/03 18:00:09;;;;;;;61.90;26.20;;;;;;;-0.09;92.46;99328.95;270507;1271;22319;-90
2023/03/03 18:06:34;;;;;;;77.30;32.20;;;;;;;-0.10;92.63;99326.19;272079;1270;22359;-92
2023/03/03 18:13:24;;;;;;;;;;;;;;;;;;;;;
2023/03/03 18:20:24;;;;;;;75.00;31.00;;;;;;;-0.09;92.69;99335.69;271004;1271;22609;-91
2023/03/03 18:26:45;;;;;;;73.80;32.50;;;;;;;-0.12;92.70;99339.84;272869;1264;23082;-90
2023/03/03 18:33:14;;;;;;;78.60;29.90;;;;;;;-0.14;92.68;99345.42;272391;1270;22331;-90
2023/03/03 18:39:41;;;;;;;73.20;31.50;;;;;;;-0.12;92.61;99351.42;272726;1270;22242;-90
2023/03/03 18:45:46;;;;;;;91.10;34.00;;;;;;;-0.14;92.65;99343.85;272150;1271;23060;-90
2023/03/03 18:51:50;;;;;;;83.00;33.20;;;;;;;-0.12;92.65;99342.58;271683;1270;22529;-90
2023/03/03 18:58:41;;;;;;;79.30;41.80;;;;;;;-0.10;92.84;99341.96;272227;1271;22531;-90
2023/03/03 19:05:04;;;;;;;82.50;31.40;;;;;;;-0.12;92.64;99333.86;264222;1270;10001691;-92
2023/03/03 19:11:31;;;;;;;80.30;30.00;;;;;;;-0.16;92.48;99331.67;270656;1273;22340;-91
2023/03/03 19:17:38;;;;;;;76.50;30.40;;;;;;;-0.17;92.53;99328.14;271707;1273;22415;-89
2023/03/03 19:23:53;;;;;;;74.10;31.70;;;;;;;-0.20;92.33;99315.17;271981;1271;25281;-91
2023/03/03 19:30:19;;;;;;;76.40;32.10;;;;;;;-0.20;92.36;99308.71;269876;1271;22567;-90
2023/03/03 19:36:40;;;;;;;64.60;26.80;;;;;;;-0.19;92.54;99316.51;270640;1271;22355;-91
2023/03/03 19:43:48;;;;;;;65.40;27.40;;;;;;;-0.22;92.41;99314.41;270561;1272;22246;-91
2023/03/03 19:49:57;;;;;;;75.60;28.80;;;;;;;-0.25;92.43;99311.61;272297;1272;22184;-92
2023/03/03 19:56:23;;;;;;;62.60;26.90;;;;;;;-0.27;92.44;99313.48;271671;1271;22216;-91
2023/03/03 20:02:41;;;;;;;76.50;30.80;;;;;;;-0.28;92.64;99313.05;270704;1271;22834;-90
2023/03/03 20:09:04;;;;;;;78.00;29.10;;;;;;;-0.28;92.53;99310.45;270809;1271;22524;-91
2023/03/03 20:15:20;;;;;;;77.60;28.70;;;;;;;-0.29;92.60;99310.11;270703;1271;22572;-88
2023/03/03 20:21:34;;;;;;;69.30;27.80;;;;;;;-0.28;93.04;99305.14;271807;1271;22395;-88
2023/03/03 20:28:06;;;;;;;60.10;25.30;;;;;;;-0.30;92.71;99300.94;271451;1271;22728;-89
2023/03/03 20:34:10;;;;;;;58.90;24.60;;;;;;;-0.33;92.56;99299.23;271354;1271;22319;-89
2023/03/03 20:40:30;;;;;;;66.70;26.60;;;;;;;-0.34;92.63;99305.33;272751;1261;22360;-88
2023/03/03 20:46:48;;;;;;;70.20;28.30;;;;;;;-0.33;92.60;99298.30;272846;1273;22255;-90
2023/03/03 20:53:08;;;;;;;74.80;28.00;;;;;;;-0.33;92.64;99290.23;272651;1271;22324;-90
2023/03/03 20:59:43;;;;;;;69.60;28.40;;;;;;;-0.34;92.62;99288.13;272853;1257;22314;-90
2023/03/03 21:06:16;;;;;;;64.30;25.20;;;;;;;-0.33;92.95;99289.41;272692;1273;22375;-90
2023/03/03 21:12:29;;;;;;;80.70;28.50;;;;;;;-0.33;93.09;99289.27;272592;1271;23294;-90
2023/03/03 21:18:44;;;;;;;81.70;29.30;;;;;;;-0.37;93.14;99281.14;270997;1271;22554;-89
2023/03/03 21:24:59;;;;;;;85.00;31.70;;;;;;;-0.37;93.37;99278.25;270116;1273;22328;-89
2023/03/03 21:31:15;;;;;;;73.80;28.50;;;;;;;-0.37;93.50;99277.55;272737;1271;22350;-89
2023/03/03 21:37:58;;;;;;;90.10;34.20;;;;;;;-0.36;93.63;99268.93;271666;1271;22543;-91
2023/03/03 21:44:40;;;;;;;91.40;30.00;;;;;;;-0.38;93.72;99266.01;271806;1271;22322;-90
2023/03/03 21:50:45;;;;;;;83.90;30.90;;;;;;;-0.38;93.83;99260.46;272681;1271;23118;-90
2023/03/03 21:56:49;;;;;;;88.80;32.60;;;;;;;-0.41;93.91;99257.27;272811;1273;22299;-90
2023/03/03 22:02:54;;;;;;;88.60;30.80;;;;;;;-0.41;94.04;99243.14;271306;1272;22532;-89
2023/03/03 22:08:56;;;;;;;87.60;32.50;;;;;;;-0.39;94.30;99234.56;269527;1271;24227;-89
2023/03/03 22:15:23;;;;;;;83.60;30.60;;;;;;;-0.40;94.33;99238.59;270746;1273;22547;-88
2023/03/03 22:21:25;;;;;;;102.20;35.30;;;;;;;-0.42;94.56;99234.64;270251;1267;22536;-89
2023/03/03 22:27:35;;;;;;;108.30;36.20;;;;;;;-0.41;94.53;99227.70;270509;1272;22571;-90
2023/03/03 22:33:36;;;;;;;106.90;37.80;;;;;;;-0.41;94.63;99218.29;270879;1271;22254;-89
2023/03/03 22:39:38;;;;;;;101.30;35.00;;;;;;;-0.42;94.75;99209.55;272232;1265;22195;-90
2023/03/03 22:45:43;;;;;;;90.20;33.10;;;;;;;-0.44;94.87;99203.93;272482;1255;275711;-90
2023/03/03 22:51:49;;;;;;;110.10;39.30;;;;;;;-0.46;94.91;99196.55;272971;1273;23046;-88
2023/03/03 22:57:51;;;;;;;101.20;36.10;;;;;;;-0.48;94.91;99178.13;272490;1273;22353;-88
2023/03/03 23:03:58;;;;;;;100.90;36.10;;;;;;;-0.47;95.15;99165.04;271207;1271;23200;-89
2023/03/03 23:10:01;;;;;;;105.40;36.40;;;;;;;-0.46;95.44;99164.82;270350;1273;22259;-89
2023/03/03 23:16:03;;;;;;;90.80;33.70;;;;;;;-0.45;95.40;99161.42;272716;1271;24355;-90
2023/03/03 23:22:08;;;;;;;83.90;30.20;;;;;;;-0.48;95.48;99158.61;270036;1264;22529;-90
2023/03/03 23:28:10;;;;;;;88.70;29.00;;;;;;;-0.49;95.71;99154.77;270038;1270;24306;-90
2023/03/03 23:34:14;;;;;;;81.80;28.80;;;;;;;-0.50;96.02;99143.81;269069;1270;22985;-89
2023/03/03 23:40:16;;;;;;;78.50;29.80;;;;;;;-0.53;96.00;99139.56;269239;1271;22963;-90
2023/03/03 23:46:19;;;;;;;91.30;34.50;;;;;;;-0.54;96.26;99126.61;269403;1265;22649;-90
2023/03/03 23:52:21;;;;;;;80.80;30.40;;;;;;;-0.54;96.26;99124.36;270433;1271;22527;-89
2023/03/03 23:58:23;;;;;;;97.40;33.30;;;;;;;-0.54;96.38;99122.09;269679;1273;23691;-88
